createdAt,value
2018-01-24T00:00:31.625Z,49.40
2018-01-24T00:01:36.578Z,49.30
2018-01-24T00:02:41.560Z,49.40
2018-01-24T00:03:46.624Z,49.40
2018-01-24T00:04:52.049Z,49.50
2018-01-24T00:05:57.065Z,49.40
2018-01-24T00:07:02.147Z,49.40
2018-01-24T00:08:07.548Z,49.40
2018-01-24T00:09:12.864Z,49.40
2018-01-24T00:10:18.251Z,49.40
2018-01-24T00:11:23.497Z,49.40
2018-01-24T00:12:28.769Z,49.40
2018-01-24T00:13:34.478Z,50.10
2018-01-24T00:14:39.278Z,49.50
2018-01-24T00:15:44.760Z,49.50
2018-01-24T00:16:49.805Z,49.50
2018-01-24T00:17:54.854Z,49.50
2018-01-24T00:18:59.922Z,49.50
2018-01-24T00:20:04.883Z,49.50
2018-01-24T00:21:09.866Z,49.50
2018-01-24T00:22:14.850Z,49.40
2018-01-24T00:23:19.792Z,49.50
2018-01-24T00:24:24.971Z,49.40
2018-01-24T00:25:29.876Z,49.40
2018-01-24T00:26:36.348Z,49.40
2018-01-24T00:27:41.352Z,49.50
2018-01-24T00:28:46.362Z,49.40
2018-01-24T00:29:51.605Z,49.40
2018-01-24T00:30:56.619Z,49.50
2018-01-24T00:32:01.942Z,49.40
2018-01-24T00:33:06.948Z,49.40
2018-01-24T00:34:12.374Z,49.50
2018-01-24T00:35:17.308Z,49.40
2018-01-24T00:36:22.522Z,49.40
2018-01-24T00:37:27.448Z,49.40
2018-01-24T00:38:32.752Z,49.40
2018-01-24T00:39:37.658Z,49.40
2018-01-24T00:40:42.876Z,49.50
2018-01-24T00:41:47.699Z,49.50
2018-01-24T00:42:52.758Z,49.50
2018-01-24T00:43:58.802Z,49.50
2018-01-24T00:45:04.293Z,49.40
2018-01-24T00:46:09.176Z,49.40
2018-01-24T00:47:14.273Z,49.50
2018-01-24T00:48:19.139Z,49.50
2018-01-24T00:49:24.475Z,49.50
2018-01-24T00:50:29.251Z,49.40
2018-01-24T00:51:34.263Z,49.50
2018-01-24T00:52:39.152Z,49.40
2018-01-24T00:53:44.356Z,49.50
2018-01-24T00:54:49.247Z,49.40
2018-01-24T00:55:54.420Z,49.50
2018-01-24T00:56:59.335Z,49.50
2018-01-24T00:58:04.518Z,49.50
2018-01-24T00:59:09.505Z,49.50
2018-01-24T01:00:15.255Z,49.50
2018-01-24T01:01:20.167Z,49.50
2018-01-24T01:02:25.496Z,49.50
2018-01-24T01:03:30.433Z,49.50
2018-01-24T01:04:35.300Z,49.50
2018-01-24T01:05:40.221Z,49.50
2018-01-24T01:06:45.217Z,49.50
2018-01-24T01:07:50.254Z,49.50
2018-01-24T01:08:55.376Z,49.60
2018-01-24T01:10:00.513Z,49.50
2018-01-24T01:11:05.820Z,49.50
2018-01-24T01:12:10.724Z,49.60
2018-01-24T01:13:15.558Z,49.60
2018-01-24T01:14:20.457Z,49.60
2018-01-24T01:15:25.369Z,49.50
2018-01-24T01:16:30.188Z,49.50
2018-01-24T01:17:35.111Z,49.50
2018-01-24T01:18:40.264Z,49.50
2018-01-24T01:19:45.205Z,49.60
2018-01-24T01:20:50.433Z,49.50
2018-01-24T01:21:55.348Z,49.50
2018-01-24T01:23:00.411Z,49.50
2018-01-24T01:24:05.488Z,49.60
2018-01-24T01:25:10.313Z,49.50
2018-01-24T01:26:15.112Z,49.60
2018-01-24T01:27:20.223Z,49.50
2018-01-24T01:28:25.082Z,49.50
2018-01-24T01:29:30.015Z,49.50
2018-01-24T01:30:34.802Z,49.50
2018-01-24T01:31:39.603Z,49.60
2018-01-24T01:32:44.777Z,49.50
2018-01-24T01:33:49.549Z,49.60
2018-01-24T01:34:54.379Z,50.20
2018-01-24T01:35:59.296Z,49.60
2018-01-24T01:37:04.249Z,49.60
2018-01-24T01:38:08.982Z,49.60
2018-01-24T01:39:14.131Z,49.70
2018-01-24T01:40:19.072Z,49.60
2018-01-24T01:41:23.917Z,49.60
2018-01-24T01:42:28.827Z,49.70
2018-01-24T01:43:33.646Z,49.60
2018-01-24T01:44:38.490Z,49.60
2018-01-24T01:45:43.270Z,49.70
2018-01-24T01:46:48.018Z,49.70
2018-01-24T01:47:52.935Z,49.60
2018-01-24T01:48:57.843Z,49.60
2018-01-24T01:50:02.732Z,49.60
2018-01-24T01:51:08.023Z,49.70
2018-01-24T01:52:12.850Z,49.60
2018-01-24T01:53:17.825Z,49.60
2018-01-24T01:54:22.733Z,49.60
2018-01-24T01:55:27.641Z,49.60
2018-01-24T01:56:32.604Z,49.60
2018-01-24T01:57:37.659Z,49.60
2018-01-24T01:58:42.405Z,49.60
2018-01-24T01:59:47.303Z,49.60
2018-01-24T02:00:52.225Z,49.60
2018-01-24T02:01:56.981Z,49.50
2018-01-24T02:03:01.863Z,49.60
2018-01-24T02:04:06.774Z,49.60
2018-01-24T02:05:11.631Z,49.60
2018-01-24T02:06:16.452Z,49.60
2018-01-24T02:07:21.241Z,49.60
2018-01-24T02:08:26.017Z,49.60
2018-01-24T02:09:30.860Z,49.70
2018-01-24T02:10:35.672Z,49.60
2018-01-24T02:11:40.545Z,49.60
2018-01-24T02:12:45.447Z,49.60
2018-01-24T02:13:50.356Z,49.60
2018-01-24T02:14:55.267Z,49.80
2018-01-24T02:16:00.967Z,49.60
2018-01-24T02:17:05.814Z,49.70
2018-01-24T02:18:10.676Z,49.60
2018-01-24T02:19:15.520Z,49.60
2018-01-24T02:20:20.324Z,49.70
2018-01-24T02:21:25.177Z,49.60
2018-01-24T02:22:29.940Z,49.70
2018-01-24T02:23:34.701Z,49.60
2018-01-24T02:24:39.460Z,49.60
2018-01-24T02:25:44.896Z,49.70
2018-01-24T02:26:49.756Z,49.70
2018-01-24T02:27:54.626Z,49.60
2018-01-24T02:28:59.461Z,49.70
2018-01-24T02:30:04.354Z,49.80
2018-01-24T02:31:09.288Z,49.70
2018-01-24T02:32:14.129Z,49.70
2018-01-24T02:33:18.883Z,49.70
2018-01-24T02:34:24.536Z,49.70
2018-01-24T02:35:29.327Z,49.70
2018-01-24T02:36:34.325Z,49.70
2018-01-24T02:37:39.187Z,49.70
2018-01-24T02:38:44.011Z,49.70
2018-01-24T02:39:48.800Z,49.70
2018-01-24T02:40:53.612Z,49.70
2018-01-24T02:41:59.090Z,49.70
2018-01-24T02:43:03.992Z,49.80
2018-01-24T02:44:08.749Z,49.70
2018-01-24T02:45:13.932Z,49.70
2018-01-24T02:46:18.841Z,49.70
2018-01-24T02:47:23.761Z,49.70
2018-01-24T02:48:28.639Z,49.70
2018-01-24T02:49:33.697Z,49.70
2018-01-24T02:50:38.485Z,49.80
2018-01-24T02:51:43.610Z,49.70
2018-01-24T02:52:49.001Z,49.70
2018-01-24T02:53:53.849Z,49.70
2018-01-24T02:54:58.906Z,49.70
2018-01-24T02:56:03.821Z,49.80
2018-01-24T02:57:08.841Z,49.70
2018-01-24T02:58:13.647Z,49.80
2018-01-24T02:59:18.622Z,49.70
2018-01-24T03:00:23.421Z,49.70
2018-01-24T03:01:28.164Z,49.70
2018-01-24T03:02:33.279Z,49.70
2018-01-24T03:03:38.025Z,49.70
2018-01-24T03:04:42.817Z,49.80
2018-01-24T03:05:47.609Z,49.70
2018-01-24T03:06:52.341Z,49.70
2018-01-24T03:07:57.147Z,49.70
2018-01-24T03:09:24.893Z,49.70
2018-01-24T03:10:29.722Z,49.70
2018-01-24T03:11:34.479Z,49.70
2018-01-24T03:12:39.224Z,49.70
2018-01-24T03:13:44.021Z,49.80
2018-01-24T03:14:48.866Z,49.70
2018-01-24T03:15:54.272Z,49.80
2018-01-24T03:16:59.018Z,49.80
2018-01-24T03:18:03.814Z,49.70
2018-01-24T03:19:08.602Z,49.70
2018-01-24T03:20:13.360Z,49.70
2018-01-24T03:21:18.268Z,49.70
2018-01-24T03:22:23.191Z,49.70
2018-01-24T03:23:28.800Z,49.70
2018-01-24T03:24:33.600Z,49.70
2018-01-24T03:25:38.645Z,49.70
2018-01-24T03:26:43.589Z,49.80
2018-01-24T03:27:48.485Z,49.70
2018-01-24T03:28:53.406Z,49.80
2018-01-24T03:29:58.278Z,49.80
2018-01-24T03:31:03.237Z,49.70
2018-01-24T03:32:08.046Z,49.70
2018-01-24T03:33:12.806Z,49.70
2018-01-24T03:34:17.709Z,49.70
2018-01-24T03:35:22.453Z,49.80
2018-01-24T03:36:27.329Z,49.80
2018-01-24T03:37:32.189Z,49.80
2018-01-24T03:38:37.021Z,49.80
2018-01-24T03:39:41.776Z,49.80
2018-01-24T03:40:46.649Z,49.70
2018-01-24T03:41:52.083Z,49.80
2018-01-24T03:42:56.912Z,49.80
2018-01-24T03:44:01.706Z,49.80
2018-01-24T03:45:06.418Z,49.80
2018-01-24T03:46:11.207Z,49.80
2018-01-24T03:47:16.009Z,49.80
2018-01-24T03:48:20.844Z,49.80
2018-01-24T03:49:25.591Z,49.80
2018-01-24T03:50:30.467Z,49.80
2018-01-24T03:51:35.287Z,49.80
2018-01-24T03:52:40.006Z,49.80
2018-01-24T03:53:44.859Z,49.80
2018-01-24T03:54:49.673Z,49.80
2018-01-24T03:55:54.533Z,49.80
2018-01-24T03:56:59.450Z,49.80
2018-01-24T03:58:04.633Z,49.80
2018-01-24T03:59:09.550Z,49.80
2018-01-24T04:00:15.285Z,49.80
2018-01-24T04:01:20.178Z,49.80
2018-01-24T04:02:24.951Z,49.80
2018-01-24T04:03:29.709Z,49.80
2018-01-24T04:04:34.558Z,49.80
2018-01-24T04:05:39.363Z,49.80
2018-01-24T04:06:44.128Z,49.80
2018-01-24T04:07:48.806Z,49.80
2018-01-24T04:08:53.696Z,49.90
2018-01-24T04:09:58.570Z,49.80
2018-01-24T04:11:03.670Z,49.90
2018-01-24T04:12:08.601Z,49.90
2018-01-24T04:13:13.531Z,49.80
2018-01-24T04:14:18.401Z,49.80
2018-01-24T04:15:23.318Z,49.80
2018-01-24T04:16:28.194Z,49.80
2018-01-24T04:17:33.074Z,49.80
2018-01-24T04:18:38.975Z,49.80
2018-01-24T04:19:43.937Z,49.80
2018-01-24T04:20:48.857Z,49.80
2018-01-24T04:21:54.387Z,49.90
2018-01-24T04:22:59.329Z,49.80
2018-01-24T04:24:04.108Z,49.90
2018-01-24T04:25:09.068Z,49.90
2018-01-24T04:26:13.770Z,49.90
2018-01-24T04:27:18.633Z,49.90
2018-01-24T04:28:23.427Z,49.90
2018-01-24T04:29:28.200Z,50.00
2018-01-24T04:30:32.962Z,49.90
2018-01-24T04:31:37.741Z,49.90
2018-01-24T04:32:42.582Z,50.00
2018-01-24T04:33:47.410Z,49.90
2018-01-24T04:34:52.366Z,49.90
2018-01-24T04:35:57.172Z,50.00
2018-01-24T04:37:03.164Z,50.00
2018-01-24T04:38:08.072Z,49.90
2018-01-24T04:39:12.834Z,50.00
2018-01-24T04:40:17.622Z,50.00
2018-01-24T04:41:22.370Z,50.00
2018-01-24T04:42:27.288Z,49.90
2018-01-24T04:43:32.040Z,50.00
2018-01-24T04:44:37.678Z,49.90
2018-01-24T04:45:42.489Z,49.90
2018-01-24T04:46:47.331Z,49.90
2018-01-24T04:47:52.125Z,49.90
2018-01-24T04:48:56.898Z,49.90
2018-01-24T04:50:01.936Z,49.90
2018-01-24T04:51:06.783Z,49.90
2018-01-24T04:52:11.608Z,50.00
2018-01-24T04:53:16.410Z,49.90
2018-01-24T04:54:21.247Z,49.90
2018-01-24T04:55:27.269Z,50.00
2018-01-24T04:56:32.221Z,49.90
2018-01-24T04:57:36.978Z,50.00
2018-01-24T04:58:41.974Z,49.90
2018-01-24T04:59:46.764Z,49.90
2018-01-24T05:00:51.818Z,50.00
2018-01-24T05:01:57.149Z,49.90
2018-01-24T05:03:02.132Z,49.90
2018-01-24T05:04:07.069Z,49.90
2018-01-24T05:05:12.042Z,50.00
2018-01-24T05:06:16.820Z,49.90
2018-01-24T05:07:21.651Z,49.90
2018-01-24T05:08:26.604Z,49.90
2018-01-24T05:09:31.669Z,49.90
2018-01-24T05:10:36.675Z,49.90
2018-01-24T05:11:41.517Z,49.90
2018-01-24T05:12:46.342Z,49.90
2018-01-24T05:13:52.016Z,50.00
2018-01-24T05:14:56.798Z,49.90
2018-01-24T05:16:01.722Z,50.00
2018-01-24T05:17:07.273Z,50.00
2018-01-24T05:18:12.115Z,50.00
2018-01-24T05:19:16.954Z,50.00
2018-01-24T05:20:21.902Z,49.90
2018-01-24T05:21:26.813Z,49.90
2018-01-24T05:22:31.735Z,50.00
2018-01-24T05:23:36.602Z,50.00
2018-01-24T05:24:42.033Z,50.00
2018-01-24T05:25:46.864Z,50.60
2018-01-24T05:26:51.666Z,49.90
2018-01-24T05:27:56.499Z,50.00
2018-01-24T05:29:01.563Z,50.00
2018-01-24T05:30:06.436Z,49.90
2018-01-24T05:31:11.161Z,50.00
2018-01-24T05:32:16.892Z,50.00
2018-01-24T05:33:21.758Z,49.90
2018-01-24T05:34:26.582Z,50.00
2018-01-24T05:35:31.407Z,50.00
2018-01-24T05:36:36.215Z,49.90
2018-01-24T05:37:41.232Z,49.90
2018-01-24T05:38:46.215Z,49.90
2018-01-24T05:39:50.949Z,50.60
2018-01-24T05:40:55.829Z,50.00
2018-01-24T05:42:00.678Z,50.00
2018-01-24T05:43:05.616Z,49.90
2018-01-24T05:44:10.519Z,49.90
2018-01-24T05:45:15.580Z,49.90
2018-01-24T05:46:20.448Z,49.90
2018-01-24T05:47:25.465Z,49.90
2018-01-24T05:48:30.322Z,49.90
2018-01-24T05:49:35.112Z,49.90
2018-01-24T05:50:40.654Z,49.90
2018-01-24T05:51:45.625Z,49.90
2018-01-24T05:52:50.511Z,49.90
2018-01-24T05:53:55.300Z,49.90
2018-01-24T05:55:00.152Z,50.00
2018-01-24T05:56:04.962Z,50.00
2018-01-24T05:57:09.726Z,50.00
2018-01-24T05:58:14.577Z,50.00
2018-01-24T05:59:19.327Z,50.00
2018-01-24T06:00:24.341Z,50.00
2018-01-24T06:01:29.693Z,50.00
2018-01-24T06:02:34.617Z,50.00
2018-01-24T06:03:39.525Z,50.00
2018-01-24T06:04:44.506Z,50.00
2018-01-24T06:05:49.342Z,50.00
2018-01-24T06:06:54.252Z,50.00
2018-01-24T06:07:59.078Z,50.00
2018-01-24T06:09:04.631Z,49.90
2018-01-24T06:10:09.496Z,49.90
2018-01-24T06:11:15.105Z,50.00
2018-01-24T06:12:20.043Z,50.00
2018-01-24T06:13:24.921Z,50.00
2018-01-24T06:14:29.999Z,49.90
2018-01-24T06:15:34.852Z,50.00
2018-01-24T06:16:39.833Z,50.00
2018-01-24T06:17:44.646Z,50.00
2018-01-24T06:18:49.508Z,50.00
2018-01-24T06:19:55.169Z,50.00
2018-01-24T06:21:00.200Z,50.00
2018-01-24T06:22:05.013Z,50.10
2018-01-24T06:23:09.978Z,50.00
2018-01-24T06:24:14.914Z,50.00
2018-01-24T06:25:19.810Z,50.60
2018-01-24T06:26:24.725Z,49.90
2018-01-24T06:27:30.035Z,49.90
2018-01-24T06:28:34.876Z,50.00
2018-01-24T06:29:39.639Z,50.00
2018-01-24T06:30:44.471Z,49.90
2018-01-24T06:31:49.992Z,50.00
2018-01-24T06:32:54.759Z,49.90
2018-01-24T06:33:59.653Z,49.90
2018-01-24T06:35:04.503Z,49.90
2018-01-24T06:36:09.417Z,49.90
2018-01-24T06:37:14.428Z,49.90
2018-01-24T06:38:19.315Z,50.50
2018-01-24T06:39:24.126Z,49.90
2018-01-24T06:40:29.001Z,49.90
2018-01-24T06:41:34.411Z,49.90
2018-01-24T06:42:39.436Z,49.90
2018-01-24T06:43:44.194Z,49.90
2018-01-24T06:44:48.996Z,49.90
2018-01-24T06:45:53.981Z,49.90
2018-01-24T06:46:58.845Z,50.00
2018-01-24T06:48:03.845Z,50.00
2018-01-24T06:49:08.748Z,50.00
2018-01-24T06:50:13.614Z,50.00
2018-01-24T06:51:18.534Z,50.00
2018-01-24T06:52:23.382Z,49.90
2018-01-24T06:53:28.231Z,50.00
2018-01-24T06:54:33.247Z,49.90
2018-01-24T06:55:38.114Z,50.00
2018-01-24T06:56:43.009Z,50.00
2018-01-24T06:57:48.025Z,50.00
2018-01-24T06:58:52.870Z,50.00
2018-01-24T06:59:57.814Z,50.00
2018-01-24T07:01:02.972Z,50.00
2018-01-24T07:02:08.058Z,50.00
2018-01-24T07:03:12.928Z,49.90
2018-01-24T07:04:18.002Z,50.00
2018-01-24T07:05:23.098Z,50.00
2018-01-24T07:06:28.059Z,49.90
2018-01-24T07:07:33.095Z,50.00
2018-01-24T07:08:38.042Z,50.00
2018-01-24T07:09:42.907Z,50.00
2018-01-24T07:10:47.912Z,50.00
2018-01-24T07:11:52.851Z,49.90
2018-01-24T07:12:58.199Z,50.00
2018-01-24T07:14:03.417Z,50.00
2018-01-24T07:15:08.450Z,50.00
2018-01-24T07:16:13.537Z,50.00
2018-01-24T07:17:18.395Z,49.90
2018-01-24T07:18:23.337Z,50.00
2018-01-24T07:19:28.177Z,50.00
2018-01-24T07:20:33.499Z,50.20
2018-01-24T07:21:38.287Z,50.20
2018-01-24T07:22:43.184Z,50.20
2018-01-24T07:23:47.998Z,50.10
2018-01-24T07:24:53.455Z,50.30
2018-01-24T07:25:58.511Z,50.20
2018-01-24T07:27:03.577Z,50.20
2018-01-24T07:28:08.383Z,50.30
2018-01-24T07:29:13.125Z,50.30
2018-01-24T07:30:18.103Z,50.30
2018-01-24T07:31:22.969Z,50.40
2018-01-24T07:32:27.785Z,50.30
2018-01-24T07:33:32.683Z,50.30
2018-01-24T07:34:37.501Z,50.40
2018-01-24T07:35:42.380Z,51.00
2018-01-24T07:36:47.110Z,50.70
2018-01-24T07:37:51.928Z,50.40
2018-01-24T07:38:56.805Z,50.40
2018-01-24T07:40:01.747Z,50.40
2018-01-24T07:41:06.845Z,50.40
2018-01-24T07:42:11.565Z,50.80
2018-01-24T07:43:16.388Z,50.50
2018-01-24T07:44:21.441Z,50.60
2018-01-24T07:45:26.284Z,50.60
2018-01-24T07:46:31.179Z,50.70
2018-01-24T07:47:36.095Z,50.70
2018-01-24T07:48:40.896Z,50.70
2018-01-24T07:49:45.722Z,50.80
2018-01-24T07:50:50.572Z,50.80
2018-01-24T07:51:55.511Z,50.80
2018-01-24T07:53:00.455Z,50.80
2018-01-24T07:54:05.319Z,50.90
2018-01-24T07:55:10.105Z,50.90
2018-01-24T07:56:15.097Z,50.90
2018-01-24T07:57:20.001Z,50.90
2018-01-24T07:58:24.870Z,50.80
2018-01-24T07:59:29.879Z,50.80
2018-01-24T08:00:34.791Z,50.80
2018-01-24T08:01:39.563Z,50.60
2018-01-24T08:02:44.408Z,50.40
2018-01-24T08:03:49.220Z,50.30
2018-01-24T08:04:54.033Z,50.30
2018-01-24T08:05:58.900Z,50.40
2018-01-24T08:07:03.859Z,50.40
2018-01-24T08:08:08.786Z,50.40
2018-01-24T08:09:13.744Z,50.40
2018-01-24T08:10:18.625Z,50.40
2018-01-24T08:11:23.442Z,50.50
2018-01-24T08:12:28.290Z,50.60
2018-01-24T08:13:33.292Z,50.70
2018-01-24T08:14:38.280Z,50.60
2018-01-24T08:15:43.264Z,50.70
2018-01-24T08:16:48.513Z,50.80
2018-01-24T08:17:53.613Z,50.80
2018-01-24T08:18:58.816Z,50.70
2018-01-24T08:20:03.710Z,50.80
2018-01-24T08:21:08.950Z,50.70
2018-01-24T08:22:13.867Z,50.80
2018-01-24T08:23:18.940Z,50.90
2018-01-24T08:24:23.861Z,50.90
2018-01-24T08:25:28.785Z,51.00
2018-01-24T08:26:33.633Z,51.00
2018-01-24T08:27:38.466Z,51.00
2018-01-24T08:28:43.572Z,51.00
2018-01-24T08:29:48.530Z,50.90
2018-01-24T08:30:53.578Z,51.30
2018-01-24T08:31:58.666Z,51.00
2018-01-24T08:33:03.494Z,51.00
2018-01-24T08:34:08.429Z,51.00
2018-01-24T08:35:13.304Z,50.90
2018-01-24T08:36:18.496Z,50.80
2018-01-24T08:37:23.360Z,50.90
2018-01-24T08:38:28.337Z,50.80
2018-01-24T08:39:33.328Z,50.80
2018-01-24T08:40:38.287Z,50.80
2018-01-24T08:41:43.306Z,51.40
2018-01-24T08:42:48.375Z,50.70
2018-01-24T08:43:53.451Z,50.80
2018-01-24T08:44:58.462Z,50.70
2018-01-24T08:46:03.626Z,50.70
2018-01-24T08:47:08.735Z,50.70
2018-01-24T08:48:13.742Z,50.70
2018-01-24T08:49:18.707Z,50.70
2018-01-24T08:50:23.682Z,50.60
2018-01-24T08:51:28.566Z,50.70
2018-01-24T08:52:33.470Z,50.60
2018-01-24T08:53:38.333Z,50.60
2018-01-24T08:54:43.267Z,50.50
2018-01-24T08:55:48.157Z,50.50
2018-01-24T08:56:53.159Z,50.60
2018-01-24T08:57:58.117Z,50.60
2018-01-24T08:59:03.086Z,50.50
2018-01-24T09:00:07.900Z,50.50
2018-01-24T09:01:12.998Z,50.40
2018-01-24T09:02:17.910Z,50.40
2018-01-24T09:03:23.562Z,50.40
2018-01-24T09:04:28.995Z,50.40
2018-01-24T09:05:33.953Z,50.40
2018-01-24T09:06:38.985Z,50.30
2018-01-24T09:07:44.053Z,50.30
2018-01-24T09:08:49.362Z,50.30
2018-01-24T09:09:54.520Z,50.30
2018-01-24T09:11:00.510Z,50.30
2018-01-24T09:12:05.524Z,50.30
2018-01-24T09:13:10.546Z,51.00
2018-01-24T09:14:15.750Z,50.30
2018-01-24T09:15:20.668Z,50.30
2018-01-24T09:16:25.472Z,50.30
2018-01-24T09:17:30.589Z,50.30
2018-01-24T09:18:35.597Z,50.20
2018-01-24T09:19:40.502Z,50.30
2018-01-24T09:20:45.519Z,50.30
2018-01-24T09:21:50.640Z,50.20
2018-01-24T09:22:55.562Z,50.20
2018-01-24T09:24:00.452Z,50.20
2018-01-24T09:25:05.430Z,50.20
2018-01-24T09:26:10.534Z,50.20
2018-01-24T09:27:15.574Z,50.20
2018-01-24T09:28:21.246Z,50.20
2018-01-24T09:29:26.269Z,50.20
2018-01-24T09:30:31.252Z,50.30
2018-01-24T09:31:36.172Z,50.30
2018-01-24T09:32:40.995Z,50.30
2018-01-24T09:33:45.753Z,50.20
2018-01-24T09:34:50.580Z,50.20
2018-01-24T09:35:55.303Z,50.20
2018-01-24T09:37:00.108Z,50.20
2018-01-24T09:38:05.006Z,50.20
2018-01-24T09:39:09.902Z,50.30
2018-01-24T09:40:14.672Z,50.20
2018-01-24T09:41:19.423Z,50.30
2018-01-24T09:42:24.317Z,50.20
2018-01-24T09:43:29.133Z,50.30
2018-01-24T09:44:33.909Z,50.40
2018-01-24T09:45:38.749Z,50.30
2018-01-24T09:46:44.041Z,50.40
2018-01-24T09:47:49.480Z,50.30
2018-01-24T09:48:54.443Z,50.40
2018-01-24T09:49:59.205Z,50.50
2018-01-24T09:51:04.204Z,50.50
2018-01-24T09:52:09.657Z,50.50
2018-01-24T09:53:14.722Z,50.40
2018-01-24T09:54:19.453Z,50.50
2018-01-24T09:55:25.006Z,50.60
2018-01-24T09:56:29.762Z,50.50
2018-01-24T09:57:34.671Z,50.50
2018-01-24T09:58:39.712Z,50.50
2018-01-24T09:59:44.506Z,50.50
2018-01-24T10:00:49.498Z,50.50
2018-01-24T10:01:54.382Z,50.60
2018-01-24T10:02:59.217Z,50.60
2018-01-24T10:04:04.153Z,50.60
2018-01-24T10:05:10.403Z,50.70
2018-01-24T10:06:15.393Z,50.70
2018-01-24T10:07:20.274Z,50.70
2018-01-24T10:08:25.519Z,50.70
2018-01-24T10:09:30.733Z,50.80
2018-01-24T10:10:36.060Z,50.80
2018-01-24T10:11:41.061Z,50.80
2018-01-24T10:12:46.216Z,50.80
2018-01-24T10:13:51.350Z,50.70
2018-01-24T10:14:56.356Z,50.90
2018-01-24T10:16:01.725Z,50.90
2018-01-24T10:17:06.953Z,50.90
2018-01-24T10:18:11.946Z,50.90
2018-01-24T10:19:16.780Z,51.00
2018-01-24T10:20:22.161Z,51.00
2018-01-24T10:21:27.151Z,51.00
2018-01-24T10:22:32.204Z,51.10
2018-01-24T10:23:37.513Z,51.40
2018-01-24T10:24:42.446Z,51.10
2018-01-24T10:25:48.210Z,51.10
2018-01-24T10:26:53.117Z,51.20
2018-01-24T10:27:58.024Z,51.20
2018-01-24T10:29:03.054Z,51.30
2018-01-24T10:30:08.088Z,51.30
2018-01-24T10:31:13.209Z,51.40
2018-01-24T10:32:18.230Z,51.40
2018-01-24T10:33:23.389Z,51.40
2018-01-24T10:34:28.317Z,51.50
2018-01-24T10:35:34.048Z,51.60
2018-01-24T10:36:39.589Z,51.60
2018-01-24T10:37:44.665Z,51.60
2018-01-24T10:38:49.741Z,51.70
2018-01-24T10:39:54.833Z,51.70
2018-01-24T10:41:00.229Z,51.70
2018-01-24T10:42:05.356Z,51.70
2018-01-24T10:43:10.956Z,51.70
2018-01-24T10:44:15.939Z,51.70
2018-01-24T10:45:21.014Z,51.70
2018-01-24T10:46:25.967Z,51.70
2018-01-24T10:47:30.760Z,51.70
2018-01-24T10:48:35.656Z,51.80
2018-01-24T10:49:40.540Z,51.90
2018-01-24T10:50:45.354Z,51.90
2018-01-24T10:51:50.064Z,51.90
2018-01-24T10:52:54.884Z,52.00
2018-01-24T10:53:59.735Z,51.80
2018-01-24T10:55:05.512Z,51.80
2018-01-24T10:56:10.528Z,51.80
2018-01-24T10:57:15.238Z,51.80
2018-01-24T10:58:20.060Z,51.70
2018-01-24T10:59:24.819Z,51.70
2018-01-24T11:00:30.226Z,51.70
2018-01-24T11:01:34.951Z,51.60
2018-01-24T11:02:39.894Z,51.60
2018-01-24T11:03:44.848Z,51.60
2018-01-24T11:04:49.570Z,51.60
2018-01-24T11:05:54.422Z,51.60
2018-01-24T11:06:59.208Z,51.50
2018-01-24T11:08:03.911Z,51.50
2018-01-24T11:09:08.808Z,51.50
2018-01-24T11:10:13.672Z,51.50
2018-01-24T11:11:19.252Z,51.50
2018-01-24T11:12:24.094Z,51.50
2018-01-24T11:13:28.854Z,51.50
2018-01-24T11:14:33.574Z,51.50
2018-01-24T11:15:38.412Z,51.40
2018-01-24T11:16:43.245Z,51.40
2018-01-24T11:17:48.031Z,51.30
2018-01-24T11:18:52.763Z,51.20
2018-01-24T11:19:57.616Z,51.20
2018-01-24T11:21:02.402Z,51.20
2018-01-24T11:22:07.241Z,51.20
2018-01-24T11:23:12.062Z,51.20
2018-01-24T11:24:16.901Z,51.30
2018-01-24T11:25:21.654Z,51.20
2018-01-24T11:26:26.475Z,51.20
2018-01-24T11:27:31.177Z,51.20
2018-01-24T11:28:36.057Z,51.20
2018-01-24T11:29:40.833Z,51.20
2018-01-24T11:30:45.790Z,51.10
2018-01-24T11:31:50.571Z,51.20
2018-01-24T11:32:56.742Z,51.10
2018-01-24T11:34:01.472Z,51.00
2018-01-24T11:35:06.323Z,51.00
2018-01-24T11:36:11.113Z,51.10
2018-01-24T11:37:15.854Z,51.70
2018-01-24T11:38:20.657Z,51.10
2018-01-24T11:39:25.491Z,51.10
2018-01-24T11:40:30.352Z,51.00
2018-01-24T11:41:35.285Z,51.00
2018-01-24T11:42:40.094Z,50.90
2018-01-24T11:43:44.951Z,50.90
2018-01-24T11:44:49.802Z,50.90
2018-01-24T11:45:54.737Z,50.90
2018-01-24T11:46:59.662Z,50.80
2018-01-24T11:48:04.472Z,50.90
2018-01-24T11:49:09.300Z,50.80
2018-01-24T11:50:14.083Z,50.80
2018-01-24T11:51:18.972Z,51.50
2018-01-24T11:52:23.717Z,50.80
2018-01-24T11:53:28.477Z,50.80
2018-01-24T11:54:34.042Z,50.80
2018-01-24T11:55:38.811Z,50.80
2018-01-24T11:56:44.617Z,50.80
2018-01-24T11:57:49.338Z,50.80
2018-01-24T11:58:54.244Z,50.80
2018-01-24T11:59:58.979Z,50.80
2018-01-24T12:01:03.722Z,50.80
2018-01-24T12:02:08.624Z,50.80
2018-01-24T12:03:13.392Z,50.80
2018-01-24T12:04:18.157Z,50.80
2018-01-24T12:05:23.177Z,50.70
2018-01-24T12:06:27.921Z,50.80
2018-01-24T12:07:32.741Z,50.80
2018-01-24T12:08:37.454Z,50.80
2018-01-24T12:09:43.146Z,50.80
2018-01-24T12:10:48.463Z,50.80
2018-01-24T12:11:53.524Z,50.70
2018-01-24T12:12:58.306Z,50.70
2018-01-24T12:14:03.075Z,50.70
2018-01-24T12:15:07.923Z,50.70
2018-01-24T12:16:12.668Z,50.80
2018-01-24T12:17:17.486Z,50.90
2018-01-24T12:18:22.188Z,50.70
2018-01-24T12:19:26.950Z,50.80
2018-01-24T12:20:31.773Z,50.60
2018-01-24T12:21:36.553Z,50.70
2018-01-24T12:22:41.476Z,50.60
2018-01-24T12:23:46.321Z,50.60
2018-01-24T12:24:51.140Z,50.60
2018-01-24T12:25:55.993Z,50.60
2018-01-24T12:27:00.842Z,50.70
2018-01-24T12:28:05.662Z,50.70
2018-01-24T12:29:10.611Z,50.80
2018-01-24T12:30:15.570Z,50.70
2018-01-24T12:31:20.322Z,50.70
2018-01-24T12:32:25.121Z,51.30
2018-01-24T12:33:30.006Z,50.70
2018-01-24T12:34:35.312Z,50.60
2018-01-24T12:35:40.071Z,50.60
2018-01-24T12:36:44.972Z,50.70
2018-01-24T12:37:49.741Z,50.70
2018-01-24T12:38:54.707Z,50.60
2018-01-24T12:39:59.586Z,50.60
2018-01-24T12:41:04.507Z,50.60
2018-01-24T12:42:09.492Z,50.70
2018-01-24T12:43:14.316Z,50.60
2018-01-24T12:44:19.540Z,50.60
2018-01-24T12:45:24.501Z,50.60
2018-01-24T12:46:29.698Z,50.60
2018-01-24T12:47:35.712Z,50.60
2018-01-24T12:48:40.742Z,50.60
2018-01-24T12:49:45.764Z,50.70
2018-01-24T12:50:50.721Z,50.60
2018-01-24T12:51:55.622Z,50.60
2018-01-24T12:53:00.659Z,50.60
2018-01-24T12:54:05.500Z,50.60
2018-01-24T12:55:10.337Z,50.60
2018-01-24T12:56:15.171Z,50.60
2018-01-24T12:57:20.228Z,50.60
2018-01-24T12:58:25.584Z,50.60
2018-01-24T12:59:30.409Z,50.60
2018-01-24T13:00:35.199Z,50.60
2018-01-24T13:01:40.130Z,50.70
2018-01-24T13:02:45.028Z,50.60
2018-01-24T13:03:49.901Z,50.70
2018-01-24T13:04:54.827Z,50.60
2018-01-24T13:05:59.781Z,50.60
2018-01-24T13:07:04.713Z,50.50
2018-01-24T13:08:09.509Z,50.50
2018-01-24T13:09:14.330Z,50.50
2018-01-24T13:10:19.277Z,50.50
2018-01-24T13:11:24.131Z,50.50
2018-01-24T13:12:29.222Z,50.50
2018-01-24T13:13:34.139Z,50.50
2018-01-24T13:14:39.116Z,50.50
2018-01-24T13:15:44.056Z,50.50
2018-01-24T13:16:49.028Z,50.50
2018-01-24T13:17:53.855Z,50.50
2018-01-24T13:18:58.689Z,50.50
2018-01-24T13:20:03.468Z,50.50
2018-01-24T13:21:08.286Z,50.50
2018-01-24T13:22:13.178Z,50.50
2018-01-24T13:23:18.601Z,50.40
2018-01-24T13:24:23.563Z,50.50
2018-01-24T13:25:28.482Z,50.50
2018-01-24T13:26:33.438Z,50.50
2018-01-24T13:27:38.333Z,50.40
2018-01-24T13:28:43.210Z,50.40
2018-01-24T13:29:48.480Z,50.40
2018-01-24T13:30:53.346Z,50.40
2018-01-24T13:31:58.223Z,50.40
2018-01-24T13:33:03.139Z,50.40
2018-01-24T13:34:08.165Z,50.40
2018-01-24T13:35:13.090Z,50.40
2018-01-24T13:36:17.931Z,50.50
2018-01-24T13:37:23.110Z,50.50
2018-01-24T13:38:28.034Z,50.50
2018-01-24T13:39:32.895Z,50.40
2018-01-24T13:40:37.876Z,50.40
2018-01-24T13:41:42.700Z,50.40
2018-01-24T13:42:47.830Z,50.40
2018-01-24T13:43:52.627Z,50.40
2018-01-24T13:44:57.477Z,50.30
2018-01-24T13:46:02.281Z,50.30
2018-01-24T13:47:07.147Z,50.30
2018-01-24T13:48:12.025Z,50.20
2018-01-24T13:49:18.057Z,50.20
2018-01-24T13:50:23.038Z,50.20
2018-01-24T13:51:27.993Z,50.20
2018-01-24T13:52:32.872Z,50.20
2018-01-24T13:53:37.824Z,50.20
2018-01-24T13:54:42.695Z,50.30
2018-01-24T13:55:47.605Z,50.30
2018-01-24T13:56:52.529Z,50.30